Time;durP1;ratioP1;P1;durP2;ratioP2;P2;SDS_P1;SDS_P2;PMS_P1;PMS_P2;Temp;Humidity;BMP_temperature;BMP_pressure;BME280_temperature;BME280_humidity;BME280_pressure;Samples;Min_cycle;Max_cycle;Signal;HPM_P1;HPM_P2
2023/01/01 00:00:12;;;;;;;27.55;14.40;;;16.10;89.40;;;;;;5061905;28;20100;-73
2023/01/01 00:02:37;;;;;;;27.92;13.82;;;16.10;88.90;;;;;;5061151;28;20029;-73
2023/01/01 00:05:04;;;;;;;23.67;11.18;;;16.10;88.90;;;;;;5062416;28;20037;-73
2023/01/01 00:07:30;;;;;;;23.20;11.93;;;16.10;89.30;;;;;;5063934;28;20055;-72
2023/01/01 00:12:40;;;;;;;19.88;7.93;;;16.10;88.50;;;;;;5064038;28;20131;-78
2023/01/01 00:15:06;;;;;;;19.77;9.15;;;16.10;87.90;;;;;;5057296;28;20029;-75
2023/01/01 00:17:32;;;;;;;19.98;8.32;;;16.10;88.00;;;;;;5058170;28;20037;-75
2023/01/01 00:19:57;;;;;;;20.30;7.90;;;16.10;88.10;;;;;;5061912;28;20484;-73
2023/01/01 00:22:24;;;;;;;16.83;7.03;;;16.10;88.40;;;;;;5060266;28;20111;-73
2023/01/01 00:24:50;;;;;;;19.27;6.60;;;16.10;88.50;;;;;;5055401;28;20508;-73
2023/01/01 00:27:16;;;;;;;20.67;8.07;;;16.10;88.40;;;;;;5054022;28;20037;-75
2023/01/01 00:29:42;;;;;;;17.85;5.88;;;16.10;88.20;;;;;;5055370;28;20362;-72
2023/01/01 00:32:07;;;;;;;18.17;5.47;;;16.10;88.30;;;;;;5055080;28;20128;-72
2023/01/01 00:34:33;;;;;;;14.15;5.13;;;16.10;88.30;;;;;;5054537;28;20446;-73
2023/01/01 00:36:58;;;;;;;15.40;5.75;;;16.10;88.70;;;;;;5054884;28;20094;-72
2023/01/01 00:39:24;;;;;;;16.45;6.13;;;16.10;88.50;;;;;;5054813;28;20029;-72
2023/01/01 00:41:50;;;;;;;15.25;5.40;;;16.10;88.80;;;;;;5053886;28;20039;-73
2023/01/01 00:44:15;;;;;;;14.02;4.65;;;16.10;88.90;;;;;;5054964;28;20075;-74
2023/01/01 00:46:41;;;;;;;15.10;4.50;;;16.10;89.00;;;;;;5053869;28;20072;-73
2023/01/01 00:49:07;;;;;;;14.20;4.50;;;16.10;89.80;;;;;;5053406;28;20027;-72
2023/01/01 00:51:32;;;;;;;11.40;4.03;;;16.00;89.60;;;;;;5053782;28;20124;-71
2023/01/01 00:53:58;;;;;;;10.13;3.40;;;16.00;90.20;;;;;;5036819;28;20037;-75
2023/01/01 00:56:24;;;;;;;10.30;3.38;;;16.00;90.20;;;;;;5054781;28;20063;-72
2023/01/01 00:58:49;;;;;;;9.65;3.53;;;15.90;90.50;;;;;;5054805;28;20033;-71
2023/01/01 01:01:16;;;;;;;12.00;3.92;;;15.90;90.60;;;;;;5054254;28;20407;-70
2023/01/01 01:03:41;;;;;;;9.68;3.60;;;15.90;90.70;;;;;;5054560;28;20025;-69
2023/01/01 01:06:11;;;;;;;11.80;2.97;;;15.80;90.80;;;;;;5054326;28;20051;-69
2023/01/01 01:08:39;;;;;;;10.73;3.40;;;15.80;91.00;;;;;;5054717;28;20466;-69
2023/01/01 01:11:10;;;;;;;9.18;2.90;;;15.80;91.40;;;;;;5054608;28;20032;-70
2023/01/01 01:13:37;;;;;;;12.32;2.80;;;15.80;91.40;;;;;;5054555;28;20017;-70
2023/01/01 01:16:11;;;;;;;10.40;2.20;;;15.80;91.30;;;;;;5054471;28;20425;-70
2023/01/01 01:18:37;;;;;;;10.50;2.30;;;15.70;91.00;;;;;;5053557;28;20036;-70
2023/01/01 01:21:03;;;;;;;9.13;1.70;;;15.70;90.90;;;;;;5053402;28;20354;-69
2023/01/01 01:23:29;;;;;;;7.55;2.08;;;15.80;91.10;;;;;;5054429;28;20569;-69
2023/01/01 01:26:04;;;;;;;9.52;2.00;;;15.70;90.80;;;;;;5054790;28;20124;-69
2023/01/01 01:28:30;;;;;;;8.70;1.65;;;15.70;90.60;;;;;;5054208;28;20021;-70
2023/01/01 01:30:59;;;;;;;10.43;1.55;;;15.80;90.80;;;;;;5053113;28;20025;-69
2023/01/01 01:33:24;;;;;;;5.30;1.45;;;15.70;90.60;;;;;;5054131;28;20036;-70
2023/01/01 01:35:51;;;;;;;11.55;2.20;;;15.70;90.70;;;;;;5054788;28;20033;-69
2023/01/01 01:38:16;;;;;;;9.45;2.13;;;15.70;90.80;;;;;;5053195;28;20025;-70
2023/01/01 01:40:43;;;;;;;9.02;2.00;;;15.60;91.10;;;;;;5054270;28;20372;-71
2023/01/01 01:43:24;;;;;;;6.65;1.85;;;15.60;90.80;;;;;;5054486;28;20037;-70
2023/01/01 01:45:55;;;;;;;9.88;1.63;;;15.60;90.90;;;;;;5054146;28;20028;-70
2023/01/01 01:48:22;;;;;;;7.68;1.63;;;15.60;90.60;;;;;;5054130;28;20465;-71
2023/01/01 01:50:51;;;;;;;7.22;1.30;;;15.60;90.70;;;;;;5053563;28;20103;-71
2023/01/01 01:53:23;;;;;;;4.60;0.98;;;15.60;90.80;;;;;;5054038;28;20480;-71
2023/01/01 01:55:53;;;;;;;13.40;1.85;;;15.50;90.70;;;;;;5054703;28;20106;-73
2023/01/01 01:58:19;;;;;;;7.32;1.70;;;15.50;90.60;;;;;;5057492;28;20025;-73
2023/01/01 02:00:46;;;;;;;7.53;1.25;;;15.50;90.50;;;;;;5040070;28;20029;-74
2023/01/01 02:03:42;;;;;;;5.18;1.23;;;15.50;90.50;;;;;;5054350;28;20025;-75
2023/01/01 02:06:09;;;;;;;8.57;1.63;;;15.60;90.00;;;;;;5052827;28;20068;-75
2023/01/01 02:08:36;;;;;;;6.22;1.10;;;15.60;90.40;;;;;;5052605;28;20028;-73
2023/01/01 02:11:02;;;;;;;10.38;1.70;;;15.60;90.40;;;;;;5052545;28;20196;-74
2023/01/01 02:13:27;;;;;;;6.78;1.38;;;15.60;90.30;;;;;;5052765;28;20496;-75
2023/01/01 02:16:03;;;;;;;7.72;1.30;;;15.60;90.00;;;;;;5054241;28;20207;-75
2023/01/01 02:18:41;;;;;;;9.68;1.77;;;15.60;90.10;;;;;;5053659;28;20021;-75
2023/01/01 02:21:19;;;;;;;8.10;1.10;;;15.60;90.40;;;;;;5053639;28;20033;-75
2023/01/01 02:23:47;;;;;;;6.13;1.60;;;15.50;90.40;;;;;;5052075;28;20508;-74
2023/01/01 02:26:38;;;;;;;13.93;4.35;;;15.60;90.20;;;;;;5053292;28;20083;-74
2023/01/01 02:29:26;;;;;;;8.57;1.50;;;15.50;90.40;;;;;;5053755;28;20112;-71
2023/01/01 02:32:08;;;;;;;6.40;1.20;;;15.60;90.30;;;;;;5053087;28;20106;-71
2023/01/01 02:34:45;;;;;;;5.50;1.30;;;15.50;90.30;;;;;;5053495;28;20422;-71
2023/01/01 02:37:13;;;;;;;6.13;1.23;;;15.50;90.20;;;;;;5053314;28;20322;-71
2023/01/01 02:39:45;;;;;;;10.25;1.55;;;15.50;90.20;;;;;;5053400;28;20490;-71
2023/01/01 02:42:11;;;;;;;6.68;1.10;;;15.50;90.00;;;;;;5051974;28;20057;-72
2023/01/01 02:44:41;;;;;;;4.50;1.20;;;15.50;89.80;;;;;;5019695;28;20473;-71
2023/01/01 02:47:14;;;;;;;5.82;0.98;;;15.50;89.80;;;;;;5053966;28;20116;-71
2023/01/01 02:49:53;;;;;;;6.38;1.00;;;15.50;89.10;;;;;;5053806;28;20135;-71
2023/01/01 02:52:44;;;;;;;7.07;1.10;;;15.50;89.10;;;;;;5052530;28;20488;-72
2023/01/01 02:55:42;;;;;;;8.80;1.02;;;15.50;88.20;;;;;;5053678;28;20067;-71
2023/01/01 03:01:33;;;;;;;13.25;1.48;;;15.50;88.10;;;;;;5053461;28;20020;-72
2023/01/01 03:04:45;;;;;;;5.45;1.02;;;15.60;88.10;;;;;;5053429;28;20488;-72
2023/01/01 03:07:34;;;;;;;6.35;1.25;;;15.50;87.80;;;;;;4992043;28;20050;-71
2023/01/01 03:10:20;;;;;;;11.15;1.25;;;15.50;87.60;;;;;;5053020;28;20040;-71
2023/01/01 03:12:52;;;;;;;5.43;1.02;;;15.50;87.90;;;;;;5053495;28;20021;-72
2023/01/01 03:15:22;;;;;;;6.38;1.10;;;15.50;87.70;;;;;;5051925;28;20111;-72
2023/01/01 03:17:59;;;;;;;6.63;1.05;;;15.50;88.10;;;;;;5056659;28;20048;-72
2023/01/01 03:20:30;;;;;;;5.60;1.00;;;15.50;87.80;;;;;;5057164;28;20024;-71
2023/01/01 03:23:01;;;;;;;5.95;1.50;;;15.50;87.20;;;;;;5057944;28;20093;-71
2023/01/01 03:25:31;;;;;;;9.75;0.77;;;15.50;87.00;;;;;;5055717;28;20053;-72
2023/01/01 03:28:03;;;;;;;5.90;1.02;;;15.50;86.60;;;;;;5056408;28;20462;-71
2023/01/01 03:30:32;;;;;;;6.38;1.00;;;15.50;86.30;;;;;;5056763;28;20362;-72
2023/01/01 03:33:04;;;;;;;6.63;1.08;;;15.60;86.40;;;;;;5057193;28;20037;-72
2023/01/01 03:35:36;;;;;;;6.45;1.00;;;15.50;86.30;;;;;;5057920;28;20025;-72
2023/01/01 03:38:05;;;;;;;5.22;1.13;;;15.50;86.80;;;;;;5057321;28;20029;-72
2023/01/01 03:40:35;;;;;;;6.80;0.85;;;15.50;86.40;;;;;;5057064;28;20032;-72
2023/01/01 03:43:33;;;;;;;8.20;1.02;;;15.50;86.40;;;;;;5056183;28;20052;-72
2023/01/01 03:46:00;;;;;;;7.57;1.10;;;15.50;86.30;;;;;;5035792;28;20041;-72
2023/01/01 03:48:26;;;;;;;4.47;0.88;;;15.50;86.30;;;;;;5055651;28;20466;-72
2023/01/01 03:51:05;;;;;;;8.65;0.75;;;15.50;86.50;;;;;;5055648;28;20159;-72
2023/01/01 03:53:41;;;;;;;6.63;0.95;;;15.50;86.70;;;;;;5056672;28;20385;-73
2023/01/01 03:56:17;;;;;;;5.15;0.88;;;15.50;86.40;;;;;;5055498;28;20029;-72
2023/01/01 03:58:59;;;;;;;6.32;1.20;;;15.50;86.60;;;;;;5056706;28;20017;-72
2023/01/01 04:01:45;;;;;;;9.10;0.80;;;15.40;86.90;;;;;;5057068;28;20029;-71
2023/01/01 04:04:12;;;;;;;8.20;1.10;;;15.40;86.80;;;;;;5056385;28;20029;-72
2023/01/01 04:06:37;;;;;;;12.65;1.83;;;15.40;87.10;;;;;;5055325;28;20036;-71
2023/01/01 04:09:07;;;;;;;4.72;0.65;;;15.40;87.20;;;;;;5055675;28;20041;-72
2023/01/01 04:14:48;;;;;;;6.15;1.00;;;15.40;86.50;;;;;;5056457;28;20036;-71
2023/01/01 04:17:14;;;;;;;5.05;0.93;;;15.40;86.80;;;;;;5043324;28;20481;-71
2023/01/01 04:19:39;;;;;;;6.28;1.23;;;15.30;87.00;;;;;;5054960;28;20065;-71
2023/01/01 04:22:05;;;;;;;5.43;0.80;;;15.30;87.40;;;;;;5054972;28;20112;-71
2023/01/01 04:24:31;;;;;;;7.70;0.93;;;15.30;87.20;;;;;;5054483;28;20052;-71
2023/01/01 04:26:57;;;;;;;5.05;0.77;;;15.30;87.60;;;;;;5056400;28;20473;-71
2023/01/01 04:29:23;;;;;;;7.70;1.30;;;15.30;87.70;;;;;;5055752;28;20068;-71
2023/01/01 04:31:49;;;;;;;6.30;0.90;;;15.30;87.70;;;;;;5056018;28;20029;-71
2023/01/01 04:34:15;;;;;;;5.25;0.93;;;15.30;88.00;;;;;;5056023;28;20051;-71
2023/01/01 04:36:41;;;;;;;6.93;0.73;;;15.30;87.90;;;;;;5055899;28;20032;-71
2023/01/01 04:39:06;;;;;;;7.53;0.77;;;15.30;88.10;;;;;;5055590;28;20025;-71
2023/01/01 04:41:32;;;;;;;5.10;1.10;;;15.30;88.40;;;;;;5055375;28;20025;-72
2023/01/01 04:43:59;;;;;;;5.90;0.93;;;15.30;89.00;;;;;;5055572;28;20516;-72
2023/01/01 04:46:24;;;;;;;9.32;1.45;;;15.30;88.90;;;;;;5055696;28;20060;-72
2023/01/01 04:48:50;;;;;;;5.20;0.70;;;15.30;89.20;;;;;;5055794;28;20068;-72
2023/01/01 04:51:18;;;;;;;7.28;1.05;;;15.30;89.40;;;;;;5056229;28;20496;-72
2023/01/01 04:53:43;;;;;;;6.18;1.10;;;15.30;89.90;;;;;;5055352;28;20107;-72
2023/01/01 04:56:12;;;;;;;5.78;0.80;;;15.30;89.90;;;;;;5054343;28;20132;-71
2023/01/01 04:58:39;;;;;;;6.35;1.20;;;15.20;90.00;;;;;;5055536;28;20029;-72
2023/01/01 05:01:05;;;;;;;5.97;0.70;;;15.20;90.10;;;;;;5037773;28;20120;-71
2023/01/01 05:03:31;;;;;;;7.72;0.90;;;15.20;90.30;;;;;;5055797;28;20436;-72
2023/01/01 05:06:00;;;;;;;5.07;1.02;;;15.20;90.40;;;;;;5055090;28;20041;-72
2023/01/01 05:08:31;;;;;;;8.98;1.00;;;15.20;90.60;;;;;;5054969;28;20025;-71
2023/01/01 05:11:02;;;;;;;6.88;1.15;;;15.20;90.60;;;;;;5055665;28;20029;-72
2023/01/01 05:13:28;;;;;;;6.32;1.00;;;15.20;90.70;;;;;;5055608;28;20033;-71
2023/01/01 05:15:54;;;;;;;6.60;0.90;;;15.20;90.80;;;;;;5054948;28;20037;-72
2023/01/01 05:18:19;;;;;;;6.38;0.90;;;15.10;90.80;;;;;;5037847;28;20124;-71
2023/01/01 05:20:45;;;;;;;6.13;0.70;;;15.10;90.90;;;;;;5054880;28;20466;-72
2023/01/01 05:23:11;;;;;;;5.70;0.90;;;15.20;91.00;;;;;;5053895;28;20041;-71
2023/01/01 05:25:36;;;;;;;4.65;1.10;;;15.10;91.10;;;;;;5055496;28;20045;-71
2023/01/01 05:28:02;;;;;;;3.15;0.70;;;15.20;91.20;;;;;;5053762;28;20375;-72
2023/01/01 05:30:27;;;;;;;5.50;0.93;;;15.10;91.40;;;;;;5053915;28;20462;-72
2023/01/01 05:32:53;;;;;;;7.93;1.33;;;15.10;91.50;;;;;;5054063;28;20025;-72
2023/01/01 05:35:19;;;;;;;4.32;1.20;;;15.10;91.70;;;;;;5054063;28;20021;-71
2023/01/01 05:37:44;;;;;;;9.10;1.38;;;15.10;91.80;;;;;;5053924;28;20424;-72
2023/01/01 05:40:10;;;;;;;5.28;0.80;;;15.10;91.90;;;;;;5052403;28;20029;-72
2023/01/01 05:42:36;;;;;;;7.88;0.90;;;15.00;91.90;;;;;;5053484;28;20492;-71
2023/01/01 05:45:03;;;;;;;4.40;0.52;;;15.00;92.00;;;;;;5054747;28;20033;-71
2023/01/01 05:47:28;;;;;;;5.03;0.70;;;15.00;91.80;;;;;;5052975;28;20043;-72
2023/01/01 05:49:54;;;;;;;4.50;0.52;;;15.00;90.90;;;;;;5053926;28;20033;-72
2023/01/01 05:52:20;;;;;;;5.57;0.75;;;14.90;88.70;;;;;;5054570;28;20100;-72
2023/01/01 05:54:45;;;;;;;5.10;0.60;;;14.90;89.20;;;;;;5054419;28;20032;-72
2023/01/01 05:57:11;;;;;;;5.18;1.00;;;14.90;89.90;;;;;;5052945;28;20043;-72
2023/01/01 05:59:36;;;;;;;6.35;0.63;;;14.90;90.50;;;;;;5053881;28;20124;-71
2023/01/01 06:02:02;;;;;;;6.03;0.77;;;14.90;90.80;;;;;;5054087;28;20074;-72
2023/01/01 06:04:28;;;;;;;3.25;0.65;;;14.90;91.30;;;;;;5053435;28;20063;-71
2023/01/01 06:06:53;;;;;;;5.68;0.77;;;14.80;91.50;;;;;;5053335;28;20128;-72
2023/01/01 06:09:19;;;;;;;7.20;0.60;;;14.80;91.70;;;;;;5054075;28;20430;-71
2023/01/01 06:11:45;;;;;;;4.50;0.50;;;14.70;91.30;;;;;;5052586;28;20518;-71
2023/01/01 06:14:10;;;;;;;5.10;0.80;;;14.70;90.40;;;;;;5052940;28;20036;-72
2023/01/01 06:16:36;;;;;;;5.30;0.65;;;14.70;90.20;;;;;;5053842;28;20436;-72
2023/01/01 06:19:03;;;;;;;5.82;0.82;;;14.80;89.60;;;;;;5054438;28;20029;-71
2023/01/01 06:21:29;;;;;;;4.63;0.60;;;14.70;89.70;;;;;;5052765;28;20025;-72
2023/01/01 06:23:57;;;;;;;3.83;0.73;;;14.80;89.80;;;;;;5052550;28;20490;-72
2023/01/01 06:26:25;;;;;;;3.95;0.85;;;14.70;90.30;;;;;;5053875;28;20533;-71
2023/01/01 06:28:51;;;;;;;5.72;0.75;;;14.70;90.30;;;;;;5052333;28;20032;-71
2023/01/01 06:31:19;;;;;;;4.57;0.43;;;14.60;90.30;;;;;;5053643;28;20431;-71
2023/01/01 06:33:46;;;;;;;6.70;0.63;;;14.60;90.50;;;;;;5052515;28;20029;-71
2023/01/01 06:36:14;;;;;;;2.90;0.47;;;14.60;91.00;;;;;;5052354;28;20385;-71
2023/01/01 06:38:42;;;;;;;7.30;0.57;;;14.50;91.40;;;;;;5052156;28;20033;-72
2023/01/01 06:41:16;;;;;;;7.25;0.90;;;14.50;91.80;;;;;;5053479;28;20032;-71
2023/01/01 06:43:43;;;;;;;7.28;0.98;;;14.50;92.10;;;;;;5053753;28;20031;-71
2023/01/01 06:46:18;;;;;;;5.32;0.40;;;14.50;92.20;;;;;;5053368;28;20112;-72
2023/01/01 06:48:46;;;;;;;6.07;0.60;;;14.40;92.40;;;;;;5053444;28;20029;-72
2023/01/01 06:51:15;;;;;;;5.43;0.70;;;14.40;92.60;;;;;;5052299;28;20111;-72
2023/01/01 06:53:41;;;;;;;8.73;0.70;;;14.40;92.80;;;;;;5053652;28;20386;-72
2023/01/01 06:56:06;;;;;;;3.95;0.70;;;14.40;93.10;;;;;;5035742;28;20040;-72
2023/01/01 06:58:32;;;;;;;9.07;0.90;;;14.30;92.80;;;;;;5053335;28;20100;-72
2023/01/01 07:01:19;;;;;;;5.28;0.80;;;14.30;93.10;;;;;;5053588;28;20530;-72
2023/01/01 07:03:54;;;;;;;5.22;0.80;;;14.30;93.30;;;;;;5052882;28;20377;-72
2023/01/01 07:06:19;;;;;;;3.60;0.68;;;14.20;93.40;;;;;;5053466;28;20036;-72
2023/01/01 07:08:45;;;;;;;6.07;0.75;;;14.30;93.40;;;;;;5052278;28;20032;-71
2023/01/01 07:11:11;;;;;;;7.28;0.55;;;14.20;92.90;;;;;;5052495;28;20036;-71
2023/01/01 07:13:37;;;;;;;8.23;0.65;;;14.10;92.50;;;;;;5053453;28;20057;-71
2023/01/01 07:16:04;;;;;;;3.42;0.43;;;14.10;92.40;;;;;;5053152;28;20040;-71
2023/01/01 07:18:30;;;;;;;4.55;0.35;;;14.10;91.90;;;;;;5053439;28;20120;-72
2023/01/01 07:21:00;;;;;;;2.55;0.30;;;14.00;91.70;;;;;;5053377;28;20434;-72
2023/01/01 07:23:28;;;;;;;3.33;0.45;;;13.90;91.70;;;;;;5053166;28;20465;-71
2023/01/01 07:25:55;;;;;;;4.38;0.20;;;13.80;91.80;;;;;;5053397;28;20524;-71
2023/01/01 07:28:22;;;;;;;2.70;0.20;;;13.80;92.40;;;;;;5053635;28;20033;-72
2023/01/01 07:30:48;;;;;;;1.85;0.17;;;13.70;93.00;;;;;;5053076;28;20033;-71
2023/01/01 07:33:16;;;;;;;2.78;0.30;;;13.60;93.10;;;;;;5052046;28;20366;-72
2023/01/01 07:35:45;;;;;;;3.80;0.20;;;13.50;93.30;;;;;;5052963;28;20025;-71
2023/01/01 07:38:12;;;;;;;4.05;0.28;;;13.50;94.00;;;;;;5053354;28;20029;-71
2023/01/01 07:40:38;;;;;;;5.30;0.40;;;13.50;94.70;;;;;;5036254;28;20123;-71
2023/01/01 07:43:04;;;;;;;5.88;0.75;;;13.40;95.00;;;;;;5035417;28;20140;-71
2023/01/01 07:45:30;;;;;;;3.17;0.20;;;13.30;95.40;;;;;;5051867;28;20025;-71
2023/01/01 07:47:57;;;;;;;4.75;0.30;;;13.30;95.40;;;;;;5053106;28;20043;-71
2023/01/01 07:50:25;;;;;;;5.43;0.35;;;13.20;95.40;;;;;;5051745;28;20029;-71
2023/01/01 07:52:51;;;;;;;2.97;0.20;;;13.20;96.00;;;;;;5053259;28;20057;-70
2023/01/01 07:55:18;;;;;;;2.90;0.50;;;13.10;95.80;;;;;;5052980;28;20065;-71
2023/01/01 07:57:45;;;;;;;4.20;0.30;;;13.10;95.90;;;;;;5052966;28;20060;-71
2023/01/01 08:00:13;;;;;;;5.88;0.68;;;13.00;96.00;;;;;;5051834;28;20120;-71
2023/01/01 08:02:39;;;;;;;2.65;0.30;;;13.00;96.30;;;;;;5052403;28;20427;-71
2023/01/01 08:05:05;;;;;;;2.05;0.25;;;13.00;96.50;;;;;;5056644;28;20063;-71
2023/01/01 08:07:31;;;;;;;4.05;0.30;;;13.00;96.70;;;;;;5055844;28;20389;-71
2023/01/01 08:09:57;;;;;;;3.78;0.38;;;12.90;96.90;;;;;;5055925;28;20036;-71
2023/01/01 08:12:23;;;;;;;3.80;0.45;;;12.90;97.00;;;;;;5056791;28;20450;-71
2023/01/01 08:14:48;;;;;;;4.50;0.40;;;12.90;97.10;;;;;;5056134;28;20513;-71
2023/01/01 08:17:14;;;;;;;5.65;0.40;;;13.00;97.20;;;;;;5056323;28;20053;-71
2023/01/01 08:19:40;;;;;;;3.45;0.20;;;13.00;97.10;;;;;;5056079;28;20037;-71
2023/01/01 08:22:05;;;;;;;3.75;0.45;;;13.00;97.20;;;;;;5055953;28;20033;-71
2023/01/01 08:24:31;;;;;;;2.88;0.30;;;13.00;97.20;;;;;;5055724;28;20458;-71
2023/01/01 08:26:57;;;;;;;5.22;0.40;;;13.00;97.30;;;;;;5056072;28;20029;-71
2023/01/01 08:29:22;;;;;;;6.47;0.20;;;13.00;97.20;;;;;;5055020;28;20071;-71
2023/01/01 08:31:48;;;;;;;3.83;0.52;;;13.00;97.30;;;;;;5056286;28;20090;-71
2023/01/01 08:34:13;;;;;;;6.70;0.50;;;13.00;97.30;;;;;;5054766;28;20072;-71
2023/01/01 08:36:39;;;;;;;6.18;0.65;;;13.00;97.30;;;;;;5055808;28;20036;-71
2023/01/01 08:39:06;;;;;;;4.22;0.30;;;13.00;97.20;;;;;;5054730;28;20382;-71
2023/01/01 08:41:32;;;;;;;2.40;0.38;;;13.00;97.20;;;;;;5054779;28;20033;-71
2023/01/01 08:43:58;;;;;;;4.00;0.30;;;12.90;97.10;;;;;;5054369;28;20079;-71
2023/01/01 08:46:24;;;;;;;6.05;0.68;;;13.00;97.20;;;;;;5055758;28;20036;-72
2023/01/01 08:48:49;;;;;;;4.95;0.52;;;13.00;97.20;;;;;;5054475;28;20385;-71
2023/01/01 08:51:15;;;;;;;4.80;0.30;;;13.00;97.30;;;;;;5055672;28;20048;-72
2023/01/01 08:53:41;;;;;;;6.30;0.73;;;13.00;97.40;;;;;;5054410;28;20492;-70
2023/01/01 08:56:09;;;;;;;4.15;0.40;;;13.00;97.30;;;;;;5055951;28;20036;-71
2023/01/01 08:58:36;;;;;;;2.92;0.30;;;12.90;97.50;;;;;;5056242;28;20480;-71
2023/01/01 09:01:02;;;;;;;3.53;0.40;;;13.00;97.60;;;;;;5055373;28;20470;-71
2023/01/01 09:03:28;;;;;;;4.38;0.30;;;13.00;97.60;;;;;;5054280;28;20482;-71
2023/01/01 09:05:54;;;;;;;3.92;0.40;;;13.00;97.90;;;;;;5055458;28;20038;-72
2023/01/01 09:08:21;;;;;;;4.88;0.40;;;13.00;97.60;;;;;;5055410;28;20035;-70
2023/01/01 09:10:47;;;;;;;4.80;0.30;;;13.10;97.70;;;;;;5054531;28;20416;-71
2023/01/01 09:13:15;;;;;;;4.75;0.50;;;13.10;97.70;;;;;;5055276;28;20025;-71
2023/01/01 09:15:44;;;;;;;5.57;0.50;;;13.10;97.80;;;;;;5053719;28;20588;-73
2023/01/01 09:18:11;;;;;;;3.95;0.30;;;13.10;98.00;;;;;;5038354;28;20025;-72
2023/01/01 09:20:37;;;;;;;5.32;0.40;;;13.10;98.20;;;;;;5053413;28;20025;-74
2023/01/01 09:23:03;;;;;;;4.53;0.52;;;13.10;98.60;;;;;;5053747;28;20032;-74
2023/01/01 09:25:29;;;;;;;2.85;0.35;;;13.10;98.80;;;;;;5053382;28;20404;-74
2023/01/01 09:27:58;;;;;;;3.50;0.50;;;13.10;99.00;;;;;;5054918;28;20029;-74
2023/01/01 09:30:24;;;;;;;7.10;0.50;;;13.10;99.10;;;;;;5053679;28;20045;-74
2023/01/01 09:32:50;;;;;;;6.20;0.77;;;13.10;99.20;;;;;;5054597;28;20029;-74
2023/01/01 09:35:16;;;;;;;7.50;0.50;;;13.20;99.40;;;;;;5053933;28;20029;-74
2023/01/01 09:37:42;;;;;;;9.02;0.65;;;13.20;99.50;;;;;;5053471;28;20465;-74
2023/01/01 09:40:29;;;;;;;6.00;0.70;;;13.20;99.50;;;;;;5036651;28;20037;-74
2023/01/01 09:43:13;;;;;;;5.50;0.40;;;13.20;99.70;;;;;;5054992;28;20032;-74
2023/01/01 09:46:00;;;;;;;7.28;0.60;;;13.20;99.90;;;;;;5053636;28;20029;-75
2023/01/01 09:48:28;;;;;;;6.47;0.40;;;13.20;99.90;;;;;;5036694;28;20131;-72
2023/01/01 09:50:54;;;;;;;11.20;1.13;;;13.10;99.90;;;;;;5053203;28;20029;-72
2023/01/01 09:53:38;;;;;;;8.15;0.60;;;13.10;99.90;;;;;;5054468;28;20029;-70
2023/01/01 09:56:05;;;;;;;7.38;0.80;;;13.10;99.90;;;;;;5053098;28;20029;-70
2023/01/01 09:58:34;;;;;;;6.18;0.40;;;13.10;99.90;;;;;;5054472;28;20106;-72
2023/01/01 10:01:25;;;;;;;5.00;0.60;;;13.20;99.90;;;;;;5053258;28;20496;-72
2023/01/01 10:04:04;;;;;;;6.38;0.95;;;13.20;99.90;;;;;;5054568;28;20032;-71
2023/01/01 10:06:33;;;;;;;5.90;0.80;;;13.20;99.90;;;;;;5053948;28;20029;-71
2023/01/01 10:09:08;;;;;;;6.70;0.70;;;13.20;99.90;;;;;;5054327;28;20108;-71
2023/01/01 10:12:01;;;;;;;7.03;0.70;;;13.20;99.90;;;;;;5052815;28;20021;-71
2023/01/01 10:14:36;;;;;;;9.45;1.00;;;13.20;99.90;;;;;;5052917;28;20036;-72
2023/01/01 10:17:16;;;;;;;7.18;0.80;;;13.20;99.90;;;;;;5053323;28;20120;-71
2023/01/01 10:19:46;;;;;;;6.63;0.75;;;13.20;99.90;;;;;;5053294;28;20116;-72
2023/01/01 10:22:31;;;;;;;7.55;0.70;;;13.20;99.90;;;;;;5053709;28;20017;-72
2023/01/01 10:25:15;;;;;;;10.93;1.02;;;13.20;99.90;;;;;;5053758;28;20489;-71
2023/01/01 10:27:52;;;;;;;9.45;0.80;;;13.20;99.90;;;;;;5052794;28;20066;-72
2023/01/01 10:30:21;;;;;;;6.80;1.05;;;13.20;99.90;;;;;;5053692;28;20029;-72
2023/01/01 10:32:48;;;;;;;6.93;0.98;;;13.10;99.90;;;;;;5052583;28;20051;-72
2023/01/01 10:35:17;;;;;;;9.52;1.85;;;13.10;99.90;;;;;;5052241;28;20021;-72
2023/01/01 10:37:43;;;;;;;5.75;0.80;;;13.00;99.90;;;;;;5053340;28;20067;-72
2023/01/01 10:40:23;;;;;;;5.80;0.68;;;13.00;99.90;;;;;;5052819;28;20025;-72
2023/01/01 10:43:10;;;;;;;10.05;0.90;;;13.00;99.90;;;;;;5052726;28;20017;-72
2023/01/01 10:45:43;;;;;;;6.00;1.25;;;12.90;99.90;;;;;;5053475;28;20035;-71
2023/01/01 10:48:27;;;;;;;7.40;0.70;;;12.90;99.90;;;;;;5054052;28;20040;-71
2023/01/01 10:51:03;;;;;;;9.40;0.80;;;12.90;99.90;;;;;;5053674;28;20021;-71
2023/01/01 10:53:35;;;;;;;7.82;1.10;;;12.90;99.90;;;;;;5053276;28;20112;-72
2023/01/01 10:56:06;;;;;;;7.20;0.70;;;12.80;99.90;;;;;;5053881;28;20032;-72
2023/01/01 10:58:42;;;;;;;7.80;0.65;;;12.80;99.90;;;;;;5052138;28;20021;-73
2023/01/01 11:01:11;;;;;;;8.82;0.80;;;12.80;99.90;;;;;;5053435;28;20029;-72
2023/01/01 11:03:54;;;;;;;8.60;0.90;;;12.70;99.90;;;;;;5053506;28;20017;-72
2023/01/01 11:06:35;;;;;;;8.30;0.93;;;12.70;99.90;;;;;;5052481;28;20032;-72
2023/01/01 11:09:19;;;;;;;9.38;1.15;;;12.70;99.90;;;;;;5052248;28;20037;-73
2023/01/01 11:11:47;;;;;;;6.45;1.20;;;12.70;99.90;;;;;;5052321;28;20055;-72
2023/01/01 11:14:37;;;;;;;9.10;1.52;;;12.70;99.90;;;;;;5052539;28;20032;-73
2023/01/01 11:17:04;;;;;;;7.38;0.68;;;12.80;99.90;;;;;;5035657;28;20024;-72
2023/01/01 11:19:38;;;;;;;7.35;0.88;;;12.80;99.90;;;;;;5053506;28;20020;-73
2023/01/01 11:22:05;;;;;;;6.78;0.85;;;12.80;99.90;;;;;;5053246;28;20097;-72
2023/01/01 11:24:32;;;;;;;9.57;1.05;;;12.80;99.90;;;;;;5052008;28;20063;-73
2023/01/01 11:27:24;;;;;;;3.67;0.65;;;12.90;99.90;;;;;;5052018;28;20041;-72
2023/01/01 11:29:52;;;;;;;5.07;1.05;;;12.90;99.90;;;;;;5052677;28;20035;-72
2023/01/01 11:32:34;;;;;;;5.38;0.75;;;12.90;99.90;;;;;;5035686;28;20025;-72
2023/01/01 11:35:05;;;;;;;6.30;0.70;;;12.90;99.90;;;;;;5052641;28;20103;-73
2023/01/01 11:37:33;;;;;;;5.15;1.33;;;13.00;99.90;;;;;;5052946;28;20475;-72
2023/01/01 11:40:00;;;;;;;8.77;1.02;;;13.00;99.90;;;;;;5056829;28;20517;-72
2023/01/01 11:42:29;;;;;;;7.63;1.33;;;13.10;99.90;;;;;;5057121;28;20048;-73
2023/01/01 11:44:59;;;;;;;4.43;0.93;;;13.10;99.90;;;;;;5056923;28;20024;-73
2023/01/01 11:47:42;;;;;;;6.93;1.00;;;13.20;99.90;;;;;;5056694;28;20033;-72
2023/01/01 11:50:13;;;;;;;9.48;1.58;;;13.20;99.90;;;;;;5056699;28;20381;-72
2023/01/01 11:52:44;;;;;;;9.38;1.38;;;13.20;99.90;;;;;;5056575;28;20028;-72
2023/01/01 11:55:16;;;;;;;6.10;1.05;;;13.20;99.90;;;;;;5056795;28;20033;-72
2023/01/01 11:57:52;;;;;;;7.95;1.30;;;13.20;99.90;;;;;;5057003;28;20024;-72
2023/01/01 12:00:18;;;;;;;5.93;1.10;;;13.20;99.90;;;;;;5055763;28;20457;-72
2023/01/01 12:02:57;;;;;;;8.25;1.20;;;13.30;99.90;;;;;;5056537;28;20032;-72
2023/01/01 12:05:32;;;;;;;9.10;1.63;;;13.30;99.90;;;;;;5056939;28;20035;-72
2023/01/01 12:08:01;;;;;;;11.02;2.70;;;13.30;99.90;;;;;;5056688;28;20060;-72
2023/01/01 12:10:33;;;;;;;8.27;1.70;;;13.30;99.90;;;;;;5055841;28;20029;-72
2023/01/01 12:13:04;;;;;;;8.35;1.40;;;13.30;99.90;;;;;;5055692;28;20028;-74
2023/01/01 12:16:01;;;;;;;12.15;2.08;;;13.30;99.90;;;;;;5056222;28;20029;-71
2023/01/01 12:18:31;;;;;;;9.95;2.10;;;13.30;99.90;;;;;;5034634;28;20028;-71
2023/01/01 12:21:04;;;;;;;11.32;2.75;;;13.30;99.90;;;;;;5054700;28;20025;-71
2023/01/01 12:23:31;;;;;;;12.30;1.98;;;13.40;99.90;;;;;;5056243;28;20025;-71
2023/01/01 12:26:20;;;;;;;8.13;2.20;;;13.40;99.90;;;;;;5056394;28;20053;-73
2023/01/01 12:28:45;;;;;;;5.85;1.90;;;13.40;99.90;;;;;;5053986;28;20049;-73
2023/01/01 12:31:29;;;;;;;8.68;1.67;;;13.40;99.90;;;;;;5056195;28;20021;-74
2023/01/01 12:34:17;;;;;;;10.98;2.67;;;13.40;99.90;;;;;;5055468;28;20450;-72
2023/01/01 12:37:06;;;;;;;11.25;2.20;;;13.50;99.90;;;;;;5055232;28;20024;-72
2023/01/01 12:39:50;;;;;;;11.77;2.40;;;13.50;99.90;;;;;;5054177;28;20060;-72
2023/01/01 12:42:27;;;;;;;11.10;2.42;;;13.50;99.90;;;;;;5055742;28;20021;-72
2023/01/01 12:45:22;;;;;;;13.90;2.17;;;13.60;99.90;;;;;;5055850;28;20032;-72
2023/01/01 12:48:07;;;;;;;10.98;1.90;;;13.80;99.90;;;;;;5056145;28;20029;-72
2023/01/01 12:50:44;;;;;;;11.05;1.92;;;13.90;99.90;;;;;;5055864;28;20055;-72
2023/01/01 12:53:21;;;;;;;9.55;1.75;;;13.90;99.90;;;;;;5056404;28;20166;-72
2023/01/01 12:55:59;;;;;;;9.27;1.77;;;13.90;99.90;;;;;;5055831;28;20032;-72
2023/01/01 12:58:39;;;;;;;11.75;2.17;;;13.90;99.90;;;;;;5055984;28;20025;-71
2023/01/01 13:01:11;;;;;;;12.77;1.83;;;13.90;99.90;;;;;;5055457;28;20025;-72
2023/01/01 13:03:54;;;;;;;11.35;2.03;;;13.90;99.90;;;;;;5055614;28;20032;-73
2023/01/01 13:06:27;;;;;;;11.75;2.15;;;13.90;99.90;;;;;;5055038;28;20036;-73
2023/01/01 13:09:03;;;;;;;11.10;1.85;;;14.00;99.90;;;;;;5054479;28;20029;-72
2023/01/01 13:11:29;;;;;;;8.68;1.67;;;14.00;99.90;;;;;;5055329;28;20021;-72